sensor_id;sensor_type;location;lat;lon;timestamp;P1;durP1;ratioP1;P2;durP2;ratioP2
74241;SDS011;62599;49.146;10.426;2023-04-06T00:00:50;1.60;;;1.02;;
74241;SDS011;62599;49.146;10.426;2023-04-06T00:03:17;1.75;;;1.23;;
74241;SDS011;62599;49.146;10.426;2023-04-06T00:05:43;2.28;;;1.45;;
74241;SDS011;62599;49.146;10.426;2023-04-06T00:08:08;1.90;;;0.98;;
74241;SDS011;62599;49.146;10.426;2023-04-06T00:10:34;6.47;;;1.08;;
74241;SDS011;62599;49.146;10.426;2023-04-06T00:13:00;3.17;;;0.85;;
74241;SDS011;62599;49.146;10.426;2023-04-06T00:15:25;2.45;;;1.63;;
74241;SDS011;62599;49.146;10.426;2023-04-06T00:17:51;3.20;;;1.13;;
74241;SDS011;62599;49.146;10.426;2023-04-06T00:20:17;1.98;;;0.63;;
74241;SDS011;62599;49.146;10.426;2023-04-06T00:22:43;3.20;;;1.17;;
74241;SDS011;62599;49.146;10.426;2023-04-06T00:25:08;1.85;;;1.02;;
74241;SDS011;62599;49.146;10.426;2023-04-06T00:27:35;3.28;;;1.77;;
74241;SDS011;62599;49.146;10.426;2023-04-06T00:30:02;1.60;;;1.15;;
74241;SDS011;62599;49.146;10.426;2023-04-06T00:32:29;1.13;;;0.98;;
74241;SDS011;62599;49.146;10.426;2023-04-06T00:34:55;1.77;;;0.93;;
74241;SDS011;62599;49.146;10.426;2023-04-06T00:37:21;4.32;;;1.58;;
74241;SDS011;62599;49.146;10.426;2023-04-06T00:39:46;2.28;;;1.33;;
74241;SDS011;62599;49.146;10.426;2023-04-06T00:42:12;3.40;;;0.87;;
74241;SDS011;62599;49.146;10.426;2023-04-06T00:44:40;0.98;;;0.93;;
74241;SDS011;62599;49.146;10.426;2023-04-06T00:47:07;3.47;;;2.15;;
74241;SDS011;62599;49.146;10.426;2023-04-06T00:49:33;2.85;;;1.67;;
74241;SDS011;62599;49.146;10.426;2023-04-06T00:51:58;11.63;;;1.42;;
74241;SDS011;62599;49.146;10.426;2023-04-06T00:54:24;3.33;;;1.50;;
74241;SDS011;62599;49.146;10.426;2023-04-06T00:56:49;1.75;;;1.08;;
74241;SDS011;62599;49.146;10.426;2023-04-06T00:59:15;12.27;;;1.73;;
74241;SDS011;62599;49.146;10.426;2023-04-06T01:01:41;1.73;;;0.75;;
74241;SDS011;62599;49.146;10.426;2023-04-06T01:04:06;1.55;;;0.88;;
74241;SDS011;62599;49.146;10.426;2023-04-06T01:06:32;5.18;;;2.58;;
74241;SDS011;62599;49.146;10.426;2023-04-06T01:08:57;4.80;;;1.77;;
74241;SDS011;62599;49.146;10.426;2023-04-06T01:11:23;0.68;;;0.68;;
74241;SDS011;62599;49.146;10.426;2023-04-06T01:13:48;1.40;;;1.15;;
74241;SDS011;62599;49.146;10.426;2023-04-06T01:16:13;1.25;;;0.85;;
74241;SDS011;62599;49.146;10.426;2023-04-06T01:18:39;1.63;;;0.77;;
74241;SDS011;62599;49.146;10.426;2023-04-06T01:21:05;2.08;;;1.80;;
74241;SDS011;62599;49.146;10.426;2023-04-06T01:23:33;2.72;;;1.33;;
74241;SDS011;62599;49.146;10.426;2023-04-06T01:25:58;2.40;;;1.40;;
74241;SDS011;62599;49.146;10.426;2023-04-06T01:28:24;4.57;;;1.85;;
74241;SDS011;62599;49.146;10.426;2023-04-06T01:30:49;5.88;;;2.30;;
74241;SDS011;62599;49.146;10.426;2023-04-06T01:33:15;7.15;;;1.15;;
74241;SDS011;62599;49.146;10.426;2023-04-06T01:35:40;4.13;;;2.05;;
74241;SDS011;62599;49.146;10.426;2023-04-06T01:38:06;1.67;;;1.45;;
74241;SDS011;62599;49.146;10.426;2023-04-06T01:40:31;4.00;;;2.10;;
74241;SDS011;62599;49.146;10.426;2023-04-06T01:42:59;7.25;;;2.60;;
74241;SDS011;62599;49.146;10.426;2023-04-06T01:45:25;3.83;;;1.88;;
74241;SDS011;62599;49.146;10.426;2023-04-06T01:47:51;2.67;;;1.92;;
74241;SDS011;62599;49.146;10.426;2023-04-06T01:50:16;1.95;;;1.45;;
74241;SDS011;62599;49.146;10.426;2023-04-06T01:52:41;2.08;;;1.65;;
74241;SDS011;62599;49.146;10.426;2023-04-06T01:55:07;2.73;;;2.00;;
74241;SDS011;62599;49.146;10.426;2023-04-06T01:57:32;1.40;;;1.05;;
74241;SDS011;62599;49.146;10.426;2023-04-06T01:59:58;2.47;;;1.13;;
74241;SDS011;62599;49.146;10.426;2023-04-06T02:02:23;1.73;;;1.20;;
74241;SDS011;62599;49.146;10.426;2023-04-06T02:04:49;3.47;;;1.30;;
74241;SDS011;62599;49.146;10.426;2023-04-06T02:07:14;2.88;;;0.75;;
74241;SDS011;62599;49.146;10.426;2023-04-06T02:09:40;2.87;;;1.37;;
74241;SDS011;62599;49.146;10.426;2023-04-06T02:12:05;1.20;;;1.10;;
74241;SDS011;62599;49.146;10.426;2023-04-06T02:14:30;3.03;;;1.20;;
74241;SDS011;62599;49.146;10.426;2023-04-06T02:16:56;0.60;;;0.50;;
74241;SDS011;62599;49.146;10.426;2023-04-06T02:19:21;2.97;;;2.53;;
74241;SDS011;62599;49.146;10.426;2023-04-06T02:21:47;1.08;;;0.63;;
74241;SDS011;62599;49.146;10.426;2023-04-06T02:24:13;1.67;;;1.17;;
74241;SDS011;62599;49.146;10.426;2023-04-06T02:26:38;1.92;;;1.02;;
74241;SDS011;62599;49.146;10.426;2023-04-06T02:29:03;1.60;;;1.33;;
74241;SDS011;62599;49.146;10.426;2023-04-06T02:31:29;2.03;;;1.35;;
74241;SDS011;62599;49.146;10.426;2023-04-06T02:33:54;4.28;;;2.40;;
74241;SDS011;62599;49.146;10.426;2023-04-06T02:36:20;1.65;;;1.25;;
74241;SDS011;62599;49.146;10.426;2023-04-06T02:38:45;2.38;;;1.35;;
74241;SDS011;62599;49.146;10.426;2023-04-06T02:41:11;7.07;;;1.48;;
74241;SDS011;62599;49.146;10.426;2023-04-06T02:43:36;6.50;;;2.73;;
74241;SDS011;62599;49.146;10.426;2023-04-06T02:46:02;9.75;;;4.93;;
74241;SDS011;62599;49.146;10.426;2023-04-06T02:48:27;4.00;;;2.63;;
74241;SDS011;62599;49.146;10.426;2023-04-06T02:50:53;2.78;;;1.35;;
74241;SDS011;62599;49.146;10.426;2023-04-06T02:53:18;5.90;;;2.25;;
74241;SDS011;62599;49.146;10.426;2023-04-06T02:55:43;2.80;;;1.70;;
74241;SDS011;62599;49.146;10.426;2023-04-06T02:58:09;6.13;;;3.35;;
74241;SDS011;62599;49.146;10.426;2023-04-06T03:00:34;2.65;;;1.83;;
74241;SDS011;62599;49.146;10.426;2023-04-06T03:03:01;2.47;;;1.17;;
74241;SDS011;62599;49.146;10.426;2023-04-06T03:05:27;1.55;;;1.15;;
74241;SDS011;62599;49.146;10.426;2023-04-06T03:07:52;2.30;;;1.38;;
74241;SDS011;62599;49.146;10.426;2023-04-06T03:10:18;4.22;;;2.10;;
74241;SDS011;62599;49.146;10.426;2023-04-06T03:12:43;3.60;;;1.75;;
74241;SDS011;62599;49.146;10.426;2023-04-06T03:15:12;1.73;;;1.63;;
74241;SDS011;62599;49.146;10.426;2023-04-06T03:17:37;2.03;;;1.52;;
74241;SDS011;62599;49.146;10.426;2023-04-06T03:20:03;1.98;;;1.60;;
74241;SDS011;62599;49.146;10.426;2023-04-06T03:22:30;2.85;;;1.70;;
74241;SDS011;62599;49.146;10.426;2023-04-06T03:24:55;3.83;;;2.35;;
74241;SDS011;62599;49.146;10.426;2023-04-06T03:27:20;1.70;;;0.80;;
74241;SDS011;62599;49.146;10.426;2023-04-06T03:29:46;5.25;;;1.38;;
74241;SDS011;62599;49.146;10.426;2023-04-06T03:32:11;2.30;;;1.83;;
74241;SDS011;62599;49.146;10.426;2023-04-06T03:34:37;2.58;;;1.50;;
74241;SDS011;62599;49.146;10.426;2023-04-06T03:37:03;3.13;;;1.80;;
74241;SDS011;62599;49.146;10.426;2023-04-06T03:39:28;3.67;;;1.03;;
74241;SDS011;62599;49.146;10.426;2023-04-06T03:41:54;0.60;;;0.50;;
74241;SDS011;62599;49.146;10.426;2023-04-06T03:44:19;0.60;;;0.47;;
74241;SDS011;62599;49.146;10.426;2023-04-06T03:46:45;5.40;;;2.03;;
74241;SDS011;62599;49.146;10.426;2023-04-06T03:49:10;1.23;;;0.93;;
74241;SDS011;62599;49.146;10.426;2023-04-06T03:51:36;2.08;;;1.50;;
74241;SDS011;62599;49.146;10.426;2023-04-06T03:54:01;1.80;;;0.70;;
74241;SDS011;62599;49.146;10.426;2023-04-06T03:56:26;1.20;;;0.90;;
74241;SDS011;62599;49.146;10.426;2023-04-06T03:58:52;1.77;;;1.05;;
74241;SDS011;62599;49.146;10.426;2023-04-06T04:01:17;0.38;;;0.30;;
74241;SDS011;62599;49.146;10.426;2023-04-06T04:03:45;2.72;;;1.40;;
74241;SDS011;62599;49.146;10.426;2023-04-06T04:06:11;1.83;;;1.48;;
74241;SDS011;62599;49.146;10.426;2023-04-06T04:08:36;2.08;;;1.00;;
74241;SDS011;62599;49.146;10.426;2023-04-06T04:11:01;3.10;;;1.30;;
74241;SDS011;62599;49.146;10.426;2023-04-06T04:13:27;1.02;;;0.90;;
74241;SDS011;62599;49.146;10.426;2023-04-06T04:15:52;3.33;;;1.70;;
74241;SDS011;62599;49.146;10.426;2023-04-06T04:18:18;1.70;;;0.77;;
74241;SDS011;62599;49.146;10.426;2023-04-06T04:20:44;2.10;;;1.27;;
74241;SDS011;62599;49.146;10.426;2023-04-06T04:23:09;2.30;;;1.17;;
74241;SDS011;62599;49.146;10.426;2023-04-06T04:25:35;2.78;;;1.60;;
74241;SDS011;62599;49.146;10.426;2023-04-06T04:28:01;6.25;;;2.25;;
74241;SDS011;62599;49.146;10.426;2023-04-06T04:30:27;2.38;;;1.75;;
74241;SDS011;62599;49.146;10.426;2023-04-06T04:32:52;1.58;;;1.20;;
74241;SDS011;62599;49.146;10.426;2023-04-06T04:35:18;4.70;;;2.63;;
74241;SDS011;62599;49.146;10.426;2023-04-06T04:37:43;3.93;;;3.53;;
74241;SDS011;62599;49.146;10.426;2023-04-06T04:40:08;1.58;;;1.48;;
74241;SDS011;62599;49.146;10.426;2023-04-06T04:42:34;1.02;;;0.98;;
74241;SDS011;62599;49.146;10.426;2023-04-06T04:45:00;2.53;;;1.77;;
74241;SDS011;62599;49.146;10.426;2023-04-06T04:47:25;4.53;;;1.25;;
74241;SDS011;62599;49.146;10.426;2023-04-06T04:49:51;1.40;;;1.13;;
74241;SDS011;62599;49.146;10.426;2023-04-06T04:52:16;4.60;;;1.58;;
74241;SDS011;62599;49.146;10.426;2023-04-06T04:54:42;2.00;;;0.83;;
74241;SDS011;62599;49.146;10.426;2023-04-06T04:57:07;2.88;;;1.83;;
74241;SDS011;62599;49.146;10.426;2023-04-06T04:59:34;1.33;;;1.08;;
74241;SDS011;62599;49.146;10.426;2023-04-06T05:01:59;1.58;;;1.13;;
74241;SDS011;62599;49.146;10.426;2023-04-06T05:04:25;2.38;;;1.95;;
74241;SDS011;62599;49.146;10.426;2023-04-06T05:07:01;2.25;;;1.60;;
74241;SDS011;62599;49.146;10.426;2023-04-06T05:09:29;0.80;;;0.70;;
74241;SDS011;62599;49.146;10.426;2023-04-06T05:11:55;0.85;;;0.55;;
74241;SDS011;62599;49.146;10.426;2023-04-06T05:14:20;1.80;;;1.17;;
74241;SDS011;62599;49.146;10.426;2023-04-06T05:16:46;1.73;;;0.70;;
74241;SDS011;62599;49.146;10.426;2023-04-06T05:19:12;0.70;;;0.70;;
74241;SDS011;62599;49.146;10.426;2023-04-06T05:21:37;4.65;;;1.65;;
74241;SDS011;62599;49.146;10.426;2023-04-06T05:24:02;3.53;;;1.60;;
74241;SDS011;62599;49.146;10.426;2023-04-06T05:26:28;3.00;;;1.73;;
74241;SDS011;62599;49.146;10.426;2023-04-06T05:28:53;2.08;;;1.45;;
74241;SDS011;62599;49.146;10.426;2023-04-06T05:31:20;4.97;;;3.00;;
74241;SDS011;62599;49.146;10.426;2023-04-06T05:33:45;1.10;;;0.85;;
74241;SDS011;62599;49.146;10.426;2023-04-06T05:36:11;3.55;;;1.95;;
74241;SDS011;62599;49.146;10.426;2023-04-06T05:38:36;5.85;;;1.73;;
74241;SDS011;62599;49.146;10.426;2023-04-06T05:41:02;3.58;;;2.50;;
74241;SDS011;62599;49.146;10.426;2023-04-06T05:43:27;8.18;;;2.38;;
74241;SDS011;62599;49.146;10.426;2023-04-06T05:45:53;3.78;;;1.92;;
74241;SDS011;62599;49.146;10.426;2023-04-06T05:48:18;0.93;;;0.88;;
74241;SDS011;62599;49.146;10.426;2023-04-06T05:50:47;1.70;;;1.05;;
74241;SDS011;62599;49.146;10.426;2023-04-06T05:53:17;2.55;;;1.60;;
74241;SDS011;62599;49.146;10.426;2023-04-06T05:55:43;5.60;;;1.67;;
74241;SDS011;62599;49.146;10.426;2023-04-06T05:58:08;1.63;;;1.53;;
74241;SDS011;62599;49.146;10.426;2023-04-06T06:00:34;2.05;;;1.50;;
74241;SDS011;62599;49.146;10.426;2023-04-06T06:03:00;2.38;;;1.50;;
74241;SDS011;62599;49.146;10.426;2023-04-06T06:05:25;7.60;;;2.58;;
74241;SDS011;62599;49.146;10.426;2023-04-06T06:07:51;4.30;;;2.03;;
74241;SDS011;62599;49.146;10.426;2023-04-06T06:10:16;4.60;;;2.42;;
74241;SDS011;62599;49.146;10.426;2023-04-06T06:12:42;4.13;;;2.77;;
74241;SDS011;62599;49.146;10.426;2023-04-06T06:15:07;1.65;;;1.50;;
74241;SDS011;62599;49.146;10.426;2023-04-06T06:17:33;2.97;;;1.90;;
74241;SDS011;62599;49.146;10.426;2023-04-06T06:19:59;4.28;;;2.58;;
74241;SDS011;62599;49.146;10.426;2023-04-06T06:22:24;5.03;;;1.83;;
74241;SDS011;62599;49.146;10.426;2023-04-06T06:24:50;2.45;;;1.27;;
74241;SDS011;62599;49.146;10.426;2023-04-06T06:27:15;2.40;;;1.63;;
74241;SDS011;62599;49.146;10.426;2023-04-06T06:29:41;6.40;;;2.85;;
74241;SDS011;62599;49.146;10.426;2023-04-06T06:32:06;4.93;;;2.53;;
74241;SDS011;62599;49.146;10.426;2023-04-06T06:34:34;2.70;;;2.35;;
74241;SDS011;62599;49.146;10.426;2023-04-06T06:37:00;3.60;;;1.30;;
74241;SDS011;62599;49.146;10.426;2023-04-06T06:39:27;4.03;;;1.85;;
74241;SDS011;62599;49.146;10.426;2023-04-06T06:41:52;4.95;;;2.95;;
74241;SDS011;62599;49.146;10.426;2023-04-06T06:44:19;2.75;;;1.38;;
74241;SDS011;62599;49.146;10.426;2023-04-06T06:46:44;7.85;;;1.25;;
74241;SDS011;62599;49.146;10.426;2023-04-06T06:49:10;2.37;;;1.53;;
74241;SDS011;62599;49.146;10.426;2023-04-06T06:51:37;2.75;;;1.73;;
74241;SDS011;62599;49.146;10.426;2023-04-06T06:54:02;2.47;;;2.15;;
74241;SDS011;62599;49.146;10.426;2023-04-06T06:56:28;1.70;;;1.60;;
74241;SDS011;62599;49.146;10.426;2023-04-06T06:58:53;2.45;;;1.55;;
74241;SDS011;62599;49.146;10.426;2023-04-06T07:01:19;1.95;;;0.90;;
74241;SDS011;62599;49.146;10.426;2023-04-06T07:03:45;5.25;;;2.70;;
74241;SDS011;62599;49.146;10.426;2023-04-06T07:06:10;3.15;;;2.35;;
74241;SDS011;62599;49.146;10.426;2023-04-06T07:08:36;3.33;;;1.70;;
74241;SDS011;62599;49.146;10.426;2023-04-06T07:11:01;5.38;;;2.22;;
74241;SDS011;62599;49.146;10.426;2023-04-06T07:13:26;0.93;;;0.63;;
74241;SDS011;62599;49.146;10.426;2023-04-06T07:15:52;1.42;;;1.15;;
74241;SDS011;62599;49.146;10.426;2023-04-06T07:18:18;2.97;;;1.90;;
74241;SDS011;62599;49.146;10.426;2023-04-06T07:20:44;3.67;;;2.33;;
74241;SDS011;62599;49.146;10.426;2023-04-06T07:23:10;4.93;;;2.05;;
74241;SDS011;62599;49.146;10.426;2023-04-06T07:25:36;2.40;;;1.45;;
74241;SDS011;62599;49.146;10.426;2023-04-06T07:28:02;2.83;;;2.30;;
74241;SDS011;62599;49.146;10.426;2023-04-06T07:30:30;6.68;;;1.67;;
74241;SDS011;62599;49.146;10.426;2023-04-06T07:32:56;5.65;;;1.95;;
74241;SDS011;62599;49.146;10.426;2023-04-06T07:35:26;3.17;;;2.10;;
74241;SDS011;62599;49.146;10.426;2023-04-06T07:37:52;3.85;;;2.33;;
74241;SDS011;62599;49.146;10.426;2023-04-06T07:40:18;3.67;;;1.35;;
74241;SDS011;62599;49.146;10.426;2023-04-06T07:42:44;3.38;;;1.98;;
74241;SDS011;62599;49.146;10.426;2023-04-06T07:45:10;1.88;;;1.50;;
74241;SDS011;62599;49.146;10.426;2023-04-06T07:47:36;3.83;;;2.28;;
74241;SDS011;62599;49.146;10.426;2023-04-06T07:50:01;5.40;;;2.97;;
74241;SDS011;62599;49.146;10.426;2023-04-06T07:52:27;4.30;;;2.30;;
74241;SDS011;62599;49.146;10.426;2023-04-06T07:54:52;4.97;;;2.63;;
74241;SDS011;62599;49.146;10.426;2023-04-06T07:57:18;7.53;;;3.00;;
74241;SDS011;62599;49.146;10.426;2023-04-06T07:59:43;6.00;;;3.10;;
74241;SDS011;62599;49.146;10.426;2023-04-06T08:02:09;5.55;;;3.05;;
74241;SDS011;62599;49.146;10.426;2023-04-06T08:04:35;2.92;;;2.22;;
74241;SDS011;62599;49.146;10.426;2023-04-06T08:07:00;3.60;;;2.33;;
74241;SDS011;62599;49.146;10.426;2023-04-06T08:09:26;2.50;;;1.38;;
74241;SDS011;62599;49.146;10.426;2023-04-06T08:11:52;5.25;;;2.30;;
74241;SDS011;62599;49.146;10.426;2023-04-06T08:14:17;4.53;;;2.43;;
74241;SDS011;62599;49.146;10.426;2023-04-06T08:16:42;6.80;;;3.83;;
74241;SDS011;62599;49.146;10.426;2023-04-06T08:19:08;8.48;;;3.55;;
74241;SDS011;62599;49.146;10.426;2023-04-06T08:21:34;8.02;;;3.58;;
74241;SDS011;62599;49.146;10.426;2023-04-06T08:24:03;5.03;;;2.92;;
74241;SDS011;62599;49.146;10.426;2023-04-06T08:26:29;5.57;;;3.00;;
74241;SDS011;62599;49.146;10.426;2023-04-06T08:28:55;6.43;;;3.13;;
74241;SDS011;62599;49.146;10.426;2023-04-06T08:31:20;4.90;;;2.30;;
74241;SDS011;62599;49.146;10.426;2023-04-06T08:33:46;9.13;;;3.90;;
74241;SDS011;62599;49.146;10.426;2023-04-06T08:36:12;4.65;;;2.78;;
74241;SDS011;62599;49.146;10.426;2023-04-06T08:38:38;6.75;;;3.15;;
74241;SDS011;62599;49.146;10.426;2023-04-06T08:41:11;14.98;;;3.92;;
74241;SDS011;62599;49.146;10.426;2023-04-06T08:43:46;4.95;;;3.15;;
74241;SDS011;62599;49.146;10.426;2023-04-06T08:46:13;5.68;;;3.20;;
74241;SDS011;62599;49.146;10.426;2023-04-06T08:48:40;6.80;;;2.85;;
74241;SDS011;62599;49.146;10.426;2023-04-06T08:51:08;8.68;;;3.85;;
74241;SDS011;62599;49.146;10.426;2023-04-06T08:53:34;8.05;;;3.47;;
74241;SDS011;62599;49.146;10.426;2023-04-06T08:55:59;5.18;;;3.20;;
74241;SDS011;62599;49.146;10.426;2023-04-06T08:58:26;7.95;;;3.60;;
74241;SDS011;62599;49.146;10.426;2023-04-06T09:00:55;14.82;;;3.90;;
74241;SDS011;62599;49.146;10.426;2023-04-06T09:03:21;5.40;;;2.80;;
74241;SDS011;62599;49.146;10.426;2023-04-06T09:05:47;6.63;;;3.67;;
74241;SDS011;62599;49.146;10.426;2023-04-06T09:08:13;1.38;;;0.98;;
74241;SDS011;62599;49.146;10.426;2023-04-06T09:10:42;8.77;;;3.80;;
74241;SDS011;62599;49.146;10.426;2023-04-06T09:13:07;7.70;;;3.08;;
74241;SDS011;62599;49.146;10.426;2023-04-06T09:15:33;6.95;;;3.60;;
74241;SDS011;62599;49.146;10.426;2023-04-06T09:18:00;14.15;;;3.58;;
74241;SDS011;62599;49.146;10.426;2023-04-06T09:20:26;5.75;;;3.58;;
74241;SDS011;62599;49.146;10.426;2023-04-06T09:22:53;9.27;;;3.30;;
74241;SDS011;62599;49.146;10.426;2023-04-06T09:25:20;4.15;;;2.75;;
74241;SDS011;62599;49.146;10.426;2023-04-06T09:27:48;4.70;;;2.67;;
74241;SDS011;62599;49.146;10.426;2023-04-06T09:30:14;8.18;;;4.93;;
74241;SDS011;62599;49.146;10.426;2023-04-06T09:32:45;6.53;;;2.63;;
74241;SDS011;62599;49.146;10.426;2023-04-06T09:35:11;5.63;;;2.53;;
74241;SDS011;62599;49.146;10.426;2023-04-06T09:37:37;6.03;;;3.40;;
74241;SDS011;62599;49.146;10.426;2023-04-06T09:40:03;6.20;;;2.80;;
74241;SDS011;62599;49.146;10.426;2023-04-06T09:42:30;5.90;;;3.22;;
74241;SDS011;62599;49.146;10.426;2023-04-06T09:44:56;5.60;;;2.75;;
74241;SDS011;62599;49.146;10.426;2023-04-06T09:47:22;6.93;;;3.33;;
74241;SDS011;62599;49.146;10.426;2023-04-06T09:49:48;5.95;;;3.15;;
74241;SDS011;62599;49.146;10.426;2023-04-06T09:52:17;4.95;;;3.00;;
74241;SDS011;62599;49.146;10.426;2023-04-06T09:54:45;11.65;;;4.18;;
74241;SDS011;62599;49.146;10.426;2023-04-06T10:00:21;8.23;;;4.25;;
74241;SDS011;62599;49.146;10.426;2023-04-06T10:05:37;7.38;;;3.42;;
74241;SDS011;62599;49.146;10.426;2023-04-06T10:08:15;3.17;;;2.65;;
74241;SDS011;62599;49.146;10.426;2023-04-06T10:10:42;8.93;;;4.10;;
74241;SDS011;62599;49.146;10.426;2023-04-06T10:13:09;8.15;;;3.55;;
74241;SDS011;62599;49.146;10.426;2023-04-06T10:15:36;7.40;;;3.90;;
74241;SDS011;62599;49.146;10.426;2023-04-06T10:18:03;11.40;;;5.18;;
74241;SDS011;62599;49.146;10.426;2023-04-06T10:28:42;11.15;;;4.45;;
74241;SDS011;62599;49.146;10.426;2023-04-06T10:31:09;10.80;;;3.58;;
74241;SDS011;62599;49.146;10.426;2023-04-06T10:33:35;6.63;;;3.80;;
74241;SDS011;62599;49.146;10.426;2023-04-06T10:36:13;7.65;;;4.55;;
74241;SDS011;62599;49.146;10.426;2023-04-06T10:38:40;14.50;;;4.60;;
74241;SDS011;62599;49.146;10.426;2023-04-06T10:41:07;6.63;;;3.72;;
74241;SDS011;62599;49.146;10.426;2023-04-06T10:43:35;7.60;;;3.70;;
74241;SDS011;62599;49.146;10.426;2023-04-06T10:46:05;8.27;;;4.40;;
74241;SDS011;62599;49.146;10.426;2023-04-06T10:48:42;7.53;;;4.32;;
74241;SDS011;62599;49.146;10.426;2023-04-06T10:51:16;10.02;;;4.65;;
74241;SDS011;62599;49.146;10.426;2023-04-06T10:53:43;8.30;;;3.95;;
74241;SDS011;62599;49.146;10.426;2023-04-06T10:56:23;6.45;;;4.22;;
74241;SDS011;62599;49.146;10.426;2023-04-06T10:58:54;12.07;;;4.95;;
74241;SDS011;62599;49.146;10.426;2023-04-06T11:01:24;11.88;;;3.95;;
74241;SDS011;62599;49.146;10.426;2023-04-06T11:03:55;6.57;;;3.83;;
74241;SDS011;62599;49.146;10.426;2023-04-06T11:06:33;8.52;;;2.13;;
74241;SDS011;62599;49.146;10.426;2023-04-06T11:08:58;13.82;;;4.82;;
74241;SDS011;62599;49.146;10.426;2023-04-06T11:11:25;4.10;;;2.85;;
74241;SDS011;62599;49.146;10.426;2023-04-06T11:16:17;8.43;;;3.93;;
74241;SDS011;62599;49.146;10.426;2023-04-06T11:21:36;7.65;;;4.15;;
74241;SDS011;62599;49.146;10.426;2023-04-06T11:26:37;9.00;;;3.97;;
74241;SDS011;62599;49.146;10.426;2023-04-06T11:29:06;7.57;;;3.60;;
74241;SDS011;62599;49.146;10.426;2023-04-06T11:31:42;5.00;;;3.20;;
74241;SDS011;62599;49.146;10.426;2023-04-06T11:34:20;7.55;;;3.58;;
74241;SDS011;62599;49.146;10.426;2023-04-06T11:36:48;5.43;;;3.25;;
74241;SDS011;62599;49.146;10.426;2023-04-06T11:39:20;6.50;;;3.45;;
74241;SDS011;62599;49.146;10.426;2023-04-06T11:41:51;7.88;;;4.10;;
74241;SDS011;62599;49.146;10.426;2023-04-06T11:47:11;7.78;;;3.25;;
74241;SDS011;62599;49.146;10.426;2023-04-06T11:49:40;5.35;;;2.92;;
74241;SDS011;62599;49.146;10.426;2023-04-06T11:52:17;8.25;;;3.22;;
74241;SDS011;62599;49.146;10.426;2023-04-06T11:54:44;6.72;;;3.17;;
74241;SDS011;62599;49.146;10.426;2023-04-06T11:57:11;5.00;;;2.90;;
74241;SDS011;62599;49.146;10.426;2023-04-06T11:59:36;8.82;;;4.32;;
74241;SDS011;62599;49.146;10.426;2023-04-06T12:02:02;5.38;;;3.75;;
74241;SDS011;62599;49.146;10.426;2023-04-06T12:04:28;6.45;;;3.35;;
74241;SDS011;62599;49.146;10.426;2023-04-06T12:06:54;5.70;;;3.22;;
74241;SDS011;62599;49.146;10.426;2023-04-06T12:09:19;9.07;;;4.15;;
74241;SDS011;62599;49.146;10.426;2023-04-06T12:11:45;5.97;;;3.20;;
74241;SDS011;62599;49.146;10.426;2023-04-06T12:14:11;5.20;;;3.03;;
74241;SDS011;62599;49.146;10.426;2023-04-06T12:16:37;9.60;;;4.22;;
74241;SDS011;62599;49.146;10.426;2023-04-06T12:19:02;6.68;;;3.55;;
74241;SDS011;62599;49.146;10.426;2023-04-06T12:21:30;6.82;;;3.97;;
74241;SDS011;62599;49.146;10.426;2023-04-06T12:23:57;10.73;;;4.97;;
74241;SDS011;62599;49.146;10.426;2023-04-06T12:26:23;7.13;;;3.67;;
74241;SDS011;62599;49.146;10.426;2023-04-06T12:28:49;6.45;;;3.63;;
74241;SDS011;62599;49.146;10.426;2023-04-06T12:31:19;5.40;;;3.35;;
74241;SDS011;62599;49.146;10.426;2023-04-06T12:33:50;5.88;;;3.80;;
74241;SDS011;62599;49.146;10.426;2023-04-06T12:36:18;2.97;;;1.92;;
74241;SDS011;62599;49.146;10.426;2023-04-06T12:38:44;8.73;;;3.85;;
74241;SDS011;62599;49.146;10.426;2023-04-06T12:41:12;8.00;;;3.22;;
74241;SDS011;62599;49.146;10.426;2023-04-06T12:43:38;8.73;;;3.20;;
74241;SDS011;62599;49.146;10.426;2023-04-06T12:46:05;6.97;;;2.97;;
74241;SDS011;62599;49.146;10.426;2023-04-06T12:48:30;7.55;;;4.22;;
74241;SDS011;62599;49.146;10.426;2023-04-06T12:50:57;5.43;;;2.88;;
74241;SDS011;62599;49.146;10.426;2023-04-06T12:53:24;5.85;;;3.70;;
74241;SDS011;62599;49.146;10.426;2023-04-06T12:55:50;4.60;;;2.70;;
74241;SDS011;62599;49.146;10.426;2023-04-06T12:58:16;8.90;;;3.40;;
74241;SDS011;62599;49.146;10.426;2023-04-06T13:00:42;6.60;;;3.15;;
74241;SDS011;62599;49.146;10.426;2023-04-06T13:03:07;10.40;;;5.43;;
74241;SDS011;62599;49.146;10.426;2023-04-06T13:05:33;9.50;;;4.55;;
74241;SDS011;62599;49.146;10.426;2023-04-06T13:07:59;7.80;;;4.43;;
74241;SDS011;62599;49.146;10.426;2023-04-06T13:10:25;5.20;;;4.25;;
74241;SDS011;62599;49.146;10.426;2023-04-06T13:12:51;9.05;;;3.30;;
74241;SDS011;62599;49.146;10.426;2023-04-06T13:15:17;6.40;;;3.08;;
74241;SDS011;62599;49.146;10.426;2023-04-06T13:17:42;5.90;;;2.88;;
74241;SDS011;62599;49.146;10.426;2023-04-06T13:20:08;7.10;;;4.35;;
74241;SDS011;62599;49.146;10.426;2023-04-06T13:22:34;6.45;;;3.22;;
74241;SDS011;62599;49.146;10.426;2023-04-06T13:24:59;4.15;;;2.92;;
74241;SDS011;62599;49.146;10.426;2023-04-06T13:27:25;6.80;;;3.70;;
74241;SDS011;62599;49.146;10.426;2023-04-06T13:29:50;6.07;;;3.33;;
74241;SDS011;62599;49.146;10.426;2023-04-06T13:32:15;5.95;;;3.45;;
74241;SDS011;62599;49.146;10.426;2023-04-06T13:34:41;6.45;;;3.72;;
74241;SDS011;62599;49.146;10.426;2023-04-06T13:37:10;5.88;;;3.63;;
74241;SDS011;62599;49.146;10.426;2023-04-06T13:39:37;8.30;;;3.42;;
74241;SDS011;62599;49.146;10.426;2023-04-06T13:42:02;6.30;;;3.50;;
74241;SDS011;62599;49.146;10.426;2023-04-06T13:44:31;5.20;;;2.65;;
74241;SDS011;62599;49.146;10.426;2023-04-06T13:46:57;7.05;;;3.88;;
74241;SDS011;62599;49.146;10.426;2023-04-06T13:49:23;6.55;;;3.15;;
74241;SDS011;62599;49.146;10.426;2023-04-06T13:51:48;7.25;;;4.18;;
74241;SDS011;62599;49.146;10.426;2023-04-06T13:54:14;8.05;;;3.35;;
74241;SDS011;62599;49.146;10.426;2023-04-06T13:56:39;7.40;;;3.55;;
74241;SDS011;62599;49.146;10.426;2023-04-06T13:59:05;5.53;;;2.60;;
74241;SDS011;62599;49.146;10.426;2023-04-06T14:01:30;8.65;;;3.45;;
74241;SDS011;62599;49.146;10.426;2023-04-06T14:03:55;7.65;;;3.45;;
74241;SDS011;62599;49.146;10.426;2023-04-06T14:06:21;6.37;;;3.67;;
74241;SDS011;62599;49.146;10.426;2023-04-06T14:08:46;7.70;;;5.13;;
74241;SDS011;62599;49.146;10.426;2023-04-06T14:11:12;5.43;;;3.22;;
74241;SDS011;62599;49.146;10.426;2023-04-06T14:13:39;5.43;;;3.13;;
74241;SDS011;62599;49.146;10.426;2023-04-06T14:16:05;4.05;;;2.70;;
74241;SDS011;62599;49.146;10.426;2023-04-06T14:18:31;3.60;;;2.13;;
74241;SDS011;62599;49.146;10.426;2023-04-06T14:20:59;6.47;;;3.55;;
74241;SDS011;62599;49.146;10.426;2023-04-06T14:23:27;4.38;;;2.45;;
74241;SDS011;62599;49.146;10.426;2023-04-06T14:28:29;6.15;;;2.92;;
74241;SDS011;62599;49.146;10.426;2023-04-06T14:30:55;5.68;;;4.20;;
74241;SDS011;62599;49.146;10.426;2023-04-06T14:33:21;4.75;;;3.35;;
74241;SDS011;62599;49.146;10.426;2023-04-06T14:35:46;4.22;;;2.70;;
74241;SDS011;62599;49.146;10.426;2023-04-06T14:38:12;4.03;;;2.60;;
74241;SDS011;62599;49.146;10.426;2023-04-06T14:40:37;5.87;;;3.20;;
74241;SDS011;62599;49.146;10.426;2023-04-06T14:43:03;6.28;;;3.75;;
74241;SDS011;62599;49.146;10.426;2023-04-06T14:45:29;4.88;;;3.13;;
74241;SDS011;62599;49.146;10.426;2023-04-06T14:47:54;5.03;;;3.00;;
74241;SDS011;62599;49.146;10.426;2023-04-06T14:50:20;4.40;;;3.03;;
74241;SDS011;62599;49.146;10.426;2023-04-06T14:52:45;5.97;;;2.78;;
74241;SDS011;62599;49.146;10.426;2023-04-06T14:55:14;6.65;;;3.00;;